Time;durP1;ratioP1;P1;durP2;ratioP2;P2;SDS_P1;SDS_P2;PMS_P1;PMS_P2;Temp;Humidity;BMP_temperature;BMP_pressure;BME280_temperature;BME280_humidity;BME280_pressure;Samples;Min_cycle;Max_cycle;Signal;HPM_P1;HPM_P2
2022/03/23 00:01:06;;;;;;;40.20;19.33;;;;;;;8.56;56.52;102599.72;5088148;28;20554;-74
2022/03/23 00:03:35;;;;;;;35.53;17.35;;;;;;;8.53;56.30;102595.69;5089457;28;20055;-75
2022/03/23 00:06:02;;;;;;;35.75;17.98;;;;;;;8.48;56.70;102597.88;5088284;28;20071;-74
2022/03/23 00:08:28;;;;;;;37.30;18.42;;;;;;;8.45;56.94;102606.81;5092121;28;20148;-75
2022/03/23 00:10:56;;;;;;;37.63;18.70;;;;;;;8.43;58.50;102603.59;5091913;28;20058;-73
2022/03/23 00:13:23;;;;;;;43.47;18.05;;;;;;;8.41;58.23;102601.19;5090907;28;20052;-74
2022/03/23 00:15:49;;;;;;;31.92;17.13;;;;;;;8.38;57.08;102604.59;5089948;28;20054;-74
2022/03/23 00:18:16;;;;;;;35.38;18.50;;;;;;;8.35;58.12;102594.25;5089866;28;20050;-73
2022/03/23 00:20:42;;;;;;;37.40;18.13;;;;;;;8.32;56.90;102596.84;5089272;28;20132;-76
2022/03/23 00:23:09;;;;;;;38.17;18.40;;;;;;;8.30;57.71;102597.19;5089044;28;20048;-77
2022/03/23 00:25:36;;;;;;;32.78;17.45;;;;;;;8.24;58.04;102603.25;5086114;28;20519;-74
2022/03/23 00:28:04;;;;;;;40.38;19.58;;;;;;;8.20;57.51;102603.06;5086455;28;20046;-73
2022/03/23 00:30:32;;;;;;;33.60;17.30;;;;;;;8.15;58.57;102597.78;5090033;28;20091;-74
2022/03/23 00:33:21;;;;;;;39.20;18.20;;;;;;;8.07;59.74;102592.31;5087442;28;20138;-73
2022/03/23 00:35:49;;;;;;;38.58;19.08;;;;;;;8.04;59.90;102600.13;5090757;28;20055;-74
2022/03/23 00:38:16;;;;;;;36.90;19.15;;;;;;;8.04;60.79;102602.06;5080056;28;20592;-74
2022/03/23 00:40:46;;;;;;;35.28;18.73;;;;;;;8.02;58.29;102605.16;5083474;28;20105;-74
2022/03/23 00:43:13;;;;;;;34.22;18.83;;;;;;;7.94;59.42;102595.00;5081830;28;20131;-73
2022/03/23 00:45:40;;;;;;;37.38;19.38;;;;;;;7.92;59.44;102601.97;5088327;28;20067;-74
2022/03/23 00:48:07;;;;;;;35.15;18.95;;;;;;;7.85;59.55;102588.75;5081629;28;20131;-74
2022/03/23 00:50:34;;;;;;;39.10;18.63;;;;;;;7.86;59.54;102600.56;5080647;28;20048;-74
2022/03/23 00:53:01;;;;;;;37.53;19.63;;;;;;;7.84;60.06;102594.59;5072948;28;20045;-75
2022/03/23 00:55:27;;;;;;;39.33;20.67;;;;;;;7.82;60.58;102596.84;5087741;28;20512;-74
2022/03/23 00:57:54;;;;;;;36.30;19.13;;;;;;;7.80;61.29;102596.41;5082608;28;20139;-74
2022/03/23 01:00:22;;;;;;;38.30;18.95;;;;;;;7.76;61.51;102592.66;5077313;28;20120;-73
2022/03/23 01:02:49;;;;;;;34.72;18.17;;;;;;;7.72;61.72;102591.72;5084735;28;20135;-73
2022/03/23 01:05:16;;;;;;;37.97;18.60;;;;;;;7.71;62.74;102590.94;5083809;28;20471;-74
2022/03/23 01:07:43;;;;;;;32.42;17.98;;;;;;;7.67;62.74;102594.69;5087814;28;20048;-73
2022/03/23 01:10:12;;;;;;;36.50;19.83;;;;;;;7.64;62.50;102592.59;5087578;28;20046;-73
2022/03/23 01:12:41;;;;;;;37.88;19.48;;;;;;;7.63;62.77;102593.75;5082688;28;20079;-73
2022/03/23 01:15:09;;;;;;;37.92;18.90;;;;;;;7.59;63.60;102593.59;5084997;28;20054;-74
2022/03/23 01:17:37;;;;;;;34.53;20.13;;;;;;;7.52;64.14;102590.53;5075861;28;20047;-75
2022/03/23 01:20:08;;;;;;;37.58;18.85;;;;;;;7.48;64.90;102586.84;5085984;28;20583;-73
2022/03/23 01:22:36;;;;;;;37.55;19.48;;;;;;;7.48;63.54;102586.84;5086078;28;20059;-72
2022/03/23 01:25:08;;;;;;;37.42;19.17;;;;;;;7.46;63.12;102588.31;5091265;28;20060;-73
2022/03/23 01:27:36;;;;;;;38.17;19.95;;;;;;;7.43;62.60;102594.50;5089577;28;20044;-74
2022/03/23 01:30:05;;;;;;;38.17;19.63;;;;;;;7.39;62.08;102585.28;5097006;28;20052;-74
2022/03/23 01:32:33;;;;;;;36.72;18.95;;;;;;;7.35;62.13;102593.38;5080102;28;20055;-74
2022/03/23 01:35:00;;;;;;;41.13;21.48;;;;;;;7.29;61.84;102582.88;5094106;28;20603;-75
2022/03/23 01:37:26;;;;;;;33.42;18.60;;;;;;;7.22;62.75;102588.06;5085098;28;20416;-74
2022/03/23 01:39:53;;;;;;;34.03;19.80;;;;;;;7.21;63.46;102581.78;5088940;28;20135;-75
2022/03/23 01:42:19;;;;;;;40.75;21.83;;;;;;;7.16;62.59;102583.91;5086735;28;20052;-74
2022/03/23 01:44:46;;;;;;;35.78;19.33;;;;;;;7.15;63.04;102582.25;5088261;28;20066;-74
2022/03/23 01:47:14;;;;;;;39.30;19.27;;;;;;;7.14;62.45;102589.75;5085320;28;20059;-74
2022/03/23 01:49:52;;;;;;;36.47;19.58;;;;;;;7.12;62.65;102592.00;5087561;28;20504;-74
2022/03/23 01:52:21;;;;;;;35.85;19.10;;;;;;;7.08;62.87;102591.03;5087995;28;20062;-73
2022/03/23 01:54:48;;;;;;;37.00;20.20;;;;;;;7.04;63.72;102589.28;5087486;28;20482;-75
2022/03/23 01:57:17;;;;;;;38.58;20.17;;;;;;;7.00;64.06;102585.56;5084049;28;20047;-74
2022/03/23 01:59:44;;;;;;;40.75;21.08;;;;;;;6.94;65.58;102593.19;5086100;28;20055;-75
2022/03/23 02:02:11;;;;;;;41.03;19.30;;;;;;;6.90;64.76;102580.41;5086373;28;20079;-75
2022/03/23 02:04:38;;;;;;;36.85;20.23;;;;;;;6.90;65.00;102585.91;5088531;28;20105;-75
2022/03/23 02:07:06;;;;;;;38.38;21.20;;;;;;;6.85;65.53;102583.34;5089274;28;20059;-74
2022/03/23 02:09:32;;;;;;;44.78;20.05;;;;;;;6.79;64.64;102582.69;5093531;28;20056;-74
2022/03/23 02:12:07;;;;;;;37.72;19.23;;;;;;;6.81;64.52;102591.44;5087633;28;20056;-74
2022/03/23 02:14:35;;;;;;;42.63;20.70;;;;;;;6.77;64.91;102581.41;5087171;28;20062;-74
2022/03/23 02:17:02;;;;;;;41.05;20.83;;;;;;;6.72;65.34;102574.13;5082317;28;20062;-74
2022/03/23 02:19:29;;;;;;;37.92;20.30;;;;;;;6.69;64.31;102585.00;5088118;28;20051;-76
2022/03/23 02:21:55;;;;;;;37.92;21.23;;;;;;;6.67;64.80;102574.31;5085852;28;20423;-74
2022/03/23 02:24:25;;;;;;;35.65;18.85;;;;;;;6.66;65.34;102585.66;5091255;28;20118;-73
2022/03/23 02:26:53;;;;;;;36.72;19.70;;;;;;;6.63;65.16;102575.28;5087433;28;20044;-74
2022/03/23 02:29:22;;;;;;;40.97;20.23;;;;;;;6.59;65.19;102569.66;5087489;28;20048;-74
2022/03/23 02:31:48;;;;;;;36.53;19.63;;;;;;;6.53;65.23;102573.69;5087520;28;20044;-76
2022/03/23 02:34:15;;;;;;;40.75;19.75;;;;;;;6.52;65.46;102579.50;5087182;28;20079;-74
2022/03/23 02:36:41;;;;;;;41.22;21.45;;;;;;;6.51;66.55;102577.91;5087252;28;20040;-74
2022/03/23 02:39:08;;;;;;;38.80;21.55;;;;;;;6.48;66.02;102584.84;5087586;28;20123;-74
2022/03/23 02:41:35;;;;;;;41.60;22.40;;;;;;;6.42;65.56;102580.66;5086795;28;20140;-74
2022/03/23 02:44:02;;;;;;;42.85;22.13;;;;;;;6.41;65.44;102569.97;5087751;28;20058;-75
2022/03/23 02:46:28;;;;;;;43.60;23.17;;;;;;;6.38;66.45;102574.16;5083938;28;20054;-76
2022/03/23 02:48:55;;;;;;;46.60;23.23;;;;;;;6.35;66.95;102566.56;5087523;28;20052;-75
2022/03/23 02:51:22;;;;;;;40.90;21.30;;;;;;;6.32;65.48;102571.91;5087526;28;20056;-74
2022/03/23 03:03:02;;;;;;;40.92;21.80;;;;;;;6.21;68.48;102578.88;4999592;28;20590;-75
2022/03/23 03:05:29;;;;;;;39.03;22.17;;;;;;;6.20;67.01;102578.06;4985325;28;20097;-74
2022/03/23 03:10:40;;;;;;;42.22;23.77;;;;;;;6.13;67.40;102580.50;5079854;28;20051;-75
2022/03/23 03:13:07;;;;;;;44.25;24.10;;;;;;;6.09;67.73;102581.44;5086934;28;20070;-75
2022/03/23 03:15:34;;;;;;;44.97;23.65;;;;;;;6.06;68.10;102582.91;5086247;28;20051;-74
2022/03/23 03:18:03;;;;;;;44.38;23.00;;;;;;;6.01;67.78;102580.31;5086261;28;20040;-75
2022/03/23 03:20:30;;;;;;;38.30;23.52;;;;;;;6.03;68.24;102582.72;5086017;28;20047;-76
2022/03/23 03:22:58;;;;;;;44.13;23.85;;;;;;;5.98;68.55;102580.97;5086179;28;20102;-75
2022/03/23 03:25:24;;;;;;;44.63;23.00;;;;;;;5.95;68.47;102578.88;5086511;28;20102;-76
2022/03/23 03:27:51;;;;;;;43.22;24.02;;;;;;;5.97;68.84;102581.28;5090725;28;20055;-74
2022/03/23 03:30:18;;;;;;;43.25;23.25;;;;;;;5.94;70.45;102582.72;5090995;28;20135;-74
2022/03/23 03:36:25;;;;;;;42.65;22.98;;;;;;;5.88;69.13;102588.69;5090292;28;20116;-74
2022/03/23 03:38:53;;;;;;;45.00;22.83;;;;;;;5.85;70.57;102581.09;5088890;28;20083;-73
2022/03/23 03:41:20;;;;;;;45.25;24.55;;;;;;;5.81;69.94;102591.09;5090652;28;20052;-75
2022/03/23 03:43:48;;;;;;;45.03;23.55;;;;;;;5.76;70.00;102582.97;5090647;28;20052;-74
2022/03/23 03:46:15;;;;;;;46.80;24.85;;;;;;;5.76;69.75;102592.03;5090474;28;20054;-74
2022/03/23 03:48:41;;;;;;;44.13;24.10;;;;;;;5.71;69.67;102588.63;5089590;28;20063;-75
2022/03/23 03:51:09;;;;;;;47.50;24.80;;;;;;;5.66;69.99;102586.84;5090232;28;20520;-74
2022/03/23 03:53:36;;;;;;;45.78;25.08;;;;;;;5.66;70.73;102588.75;5090633;28;20101;-76
2022/03/23 03:56:07;;;;;;;45.97;24.42;;;;;;;5.61;71.45;102589.75;5090212;28;20055;-74
2022/03/23 03:58:33;;;;;;;53.35;27.98;;;;;;;5.60;72.59;102588.09;5088887;28;20039;-75
2022/03/23 04:01:00;;;;;;;49.65;25.58;;;;;;;5.59;73.17;102589.25;5088070;28;20131;-76
2022/03/23 04:03:27;;;;;;;47.60;26.30;;;;;;;5.58;71.87;102600.53;5090351;28;20059;-74
2022/03/23 04:05:54;;;;;;;47.60;26.17;;;;;;;5.54;73.02;102589.41;5090586;28;20142;-73
2022/03/23 04:08:20;;;;;;;49.40;25.48;;;;;;;5.54;73.49;102594.06;5089716;28;20052;-77
2022/03/23 04:10:47;;;;;;;44.50;25.05;;;;;;;5.55;72.45;102593.75;5092954;28;20056;-73
2022/03/23 04:13:13;;;;;;;46.78;25.88;;;;;;;5.50;73.17;102598.59;5092775;28;20483;-74
2022/03/23 04:15:40;;;;;;;47.85;27.15;;;;;;;5.47;73.29;102598.09;5088096;28;20040;-74
2022/03/23 04:18:07;;;;;;;46.55;25.92;;;;;;;5.43;73.91;102590.00;5092896;28;20186;-75
2022/03/23 04:20:35;;;;;;;45.63;26.05;;;;;;;5.43;73.75;102599.84;5090806;28;20067;-77
2022/03/23 04:23:02;;;;;;;50.35;27.13;;;;;;;5.37;75.03;102592.88;5088533;28;20134;-73
2022/03/23 04:25:29;;;;;;;48.80;27.48;;;;;;;5.36;74.18;102607.75;5093490;28;20583;-74
2022/03/23 04:27:57;;;;;;;43.92;25.92;;;;;;;5.26;74.04;102609.94;5093109;28;20052;-74
2022/03/23 04:30:28;;;;;;;49.88;27.30;;;;;;;5.17;73.80;102607.16;5098327;28;20070;-76
2022/03/23 04:32:55;;;;;;;44.90;26.77;;;;;;;5.20;75.97;102613.97;5087136;28;20063;-74
2022/03/23 04:35:22;;;;;;;50.00;26.92;;;;;;;5.21;77.12;102610.91;5083889;28;20543;-75
2022/03/23 04:37:49;;;;;;;48.35;26.60;;;;;;;5.21;76.60;102607.34;5089070;28;20052;-74
2022/03/23 04:40:17;;;;;;;51.95;28.33;;;;;;;5.28;77.47;102610.44;5095104;28;20052;-77
2022/03/23 04:42:44;;;;;;;49.15;24.60;;;;;;;5.33;75.01;102616.59;5081419;28;20058;-76
2022/03/23 04:45:12;;;;;;;48.10;26.17;;;;;;;5.29;76.20;102618.38;5089299;28;20054;-73
2022/03/23 04:47:40;;;;;;;46.72;27.27;;;;;;;5.28;75.20;102614.00;5087734;28;20853;-76
2022/03/23 04:50:09;;;;;;;47.97;26.25;;;;;;;5.23;75.47;102619.63;5089733;28;20140;-74
2022/03/23 04:52:37;;;;;;;48.15;26.55;;;;;;;5.19;76.51;102626.88;5089544;28;20592;-75
2022/03/23 04:55:05;;;;;;;54.72;28.55;;;;;;;5.14;77.26;102615.22;5089039;28;20166;-73
2022/03/23 04:57:32;;;;;;;47.13;26.40;;;;;;;5.07;77.55;102612.13;5089077;28;20048;-73
2022/03/23 04:59:58;;;;;;;47.03;27.02;;;;;;;5.13;76.94;102619.09;5088716;28;20239;-74
2022/03/23 05:02:26;;;;;;;49.00;26.85;;;;;;;5.06;76.46;102611.31;5089032;28;20044;-74
2022/03/23 05:04:53;;;;;;;50.28;28.30;;;;;;;5.00;76.71;102622.75;5087204;28;20658;-75
2022/03/23 05:07:19;;;;;;;57.58;29.40;;;;;;;4.99;77.61;102619.19;5091652;28;20055;-74
2022/03/23 05:09:46;;;;;;;48.15;27.48;;;;;;;5.00;78.49;102626.28;5094097;27;20071;-74
2022/03/23 05:12:12;;;;;;;49.15;27.38;;;;;;;4.99;79.02;102624.66;5087988;28;20077;-76
2022/03/23 05:14:39;;;;;;;48.13;27.50;;;;;;;4.96;79.18;102624.47;5088069;28;20046;-74
2022/03/23 05:17:05;;;;;;;50.53;29.45;;;;;;;4.93;78.03;102630.59;5088869;28;20516;-75
2022/03/23 05:19:32;;;;;;;47.42;26.58;;;;;;;4.90;77.57;102623.78;5086817;28;20462;-76
2022/03/23 05:21:58;;;;;;;56.05;28.17;;;;;;;4.92;77.88;102623.47;5086575;28;20044;-74
2022/03/23 05:24:25;;;;;;;52.08;26.88;;;;;;;4.93;76.73;102627.88;5091289;28;20043;-76
2022/03/23 05:26:51;;;;;;;51.50;28.58;;;;;;;4.93;77.22;102631.41;5087926;28;20119;-75
2022/03/23 05:29:18;;;;;;;48.25;28.30;;;;;;;4.88;76.44;102628.78;5084729;28;21156;-74
2022/03/23 05:31:45;;;;;;;47.22;28.33;;;;;;;4.84;77.19;102630.56;5087299;28;20501;-74
2022/03/23 05:34:12;;;;;;;57.65;30.80;;;;;;;4.86;78.54;102628.28;5088186;28;20530;-74
2022/03/23 05:36:39;;;;;;;53.20;29.35;;;;;;;4.80;79.21;102626.78;5088916;28;20048;-74
2022/03/23 05:39:05;;;;;;;53.88;28.52;;;;;;;4.79;79.02;102633.41;5087432;28;20052;-75
2022/03/23 05:41:32;;;;;;;53.15;29.15;;;;;;;4.79;78.59;102635.31;5087351;28;20420;-75
2022/03/23 05:43:58;;;;;;;49.15;28.85;;;;;;;4.81;78.62;102627.59;5088446;28;20093;-75
2022/03/23 05:46:25;;;;;;;47.65;28.40;;;;;;;4.80;78.75;102632.28;5087819;28;20128;-74
2022/03/23 05:48:53;;;;;;;56.30;29.70;;;;;;;4.79;78.91;102638.88;5088778;28;20048;-75
2022/03/23 05:51:20;;;;;;;48.67;27.90;;;;;;;4.71;79.31;102631.41;5087868;28;20554;-74
2022/03/23 05:53:47;;;;;;;50.40;28.40;;;;;;;4.68;79.01;102636.69;5086943;28;20070;-74
2022/03/23 05:56:14;;;;;;;51.15;29.98;;;;;;;4.69;79.59;102639.13;5088250;28;20549;-75
2022/03/23 05:58:40;;;;;;;48.72;27.27;;;;;;;4.79;80.29;102636.16;5088132;28;20044;-77
2022/03/23 06:01:07;;;;;;;58.97;28.73;;;;;;;4.82;80.82;102641.00;5087378;28;20154;-74
2022/03/23 06:03:35;;;;;;;48.05;28.92;;;;;;;4.84;79.90;102636.03;5088111;28;20920;-75
2022/03/23 06:06:03;;;;;;;49.75;27.83;;;;;;;4.92;80.03;102643.50;5087393;28;20051;-74
2022/03/23 06:08:29;;;;;;;51.42;28.88;;;;;;;4.97;80.89;102648.84;5095455;28;20056;-75
2022/03/23 06:10:57;;;;;;;50.65;28.67;;;;;;;5.02;81.13;102645.16;5088702;28;20051;-76
2022/03/23 06:13:23;;;;;;;49.70;29.55;;;;;;;5.04;80.76;102640.19;5086172;28;20214;-75
2022/03/23 06:15:50;;;;;;;52.60;28.15;;;;;;;5.13;81.85;102652.81;5087993;28;20078;-74
2022/03/23 06:18:16;;;;;;;60.42;29.25;;;;;;;5.16;80.80;102646.72;5088156;28;20135;-75
2022/03/23 06:20:43;;;;;;;53.42;29.85;;;;;;;5.24;80.71;102654.16;5086616;28;20189;-76
2022/03/23 06:23:10;;;;;;;49.75;27.80;;;;;;;5.29;80.94;102653.22;5087592;28;20049;-74
2022/03/23 06:25:37;;;;;;;58.58;27.95;;;;;;;5.37;79.56;102657.97;5087894;28;20126;-73
2022/03/23 06:28:03;;;;;;;50.28;27.65;;;;;;;5.42;79.33;102652.34;5086548;28;20076;-73
2022/03/23 06:30:30;;;;;;;55.17;28.83;;;;;;;5.43;79.10;102652.03;5086868;28;20044;-74
2022/03/23 06:32:59;;;;;;;52.25;28.17;;;;;;;5.48;78.99;102653.81;5087281;28;20497;-74
2022/03/23 06:35:26;;;;;;;55.15;29.27;;;;;;;5.51;79.49;102663.34;5087901;28;20072;-75
2022/03/23 06:37:53;;;;;;;50.83;25.77;;;;;;;5.51;78.87;102661.44;5087008;28;20131;-73
2022/03/23 06:40:20;;;;;;;52.65;27.13;;;;;;;5.59;79.93;102659.81;5086979;28;20463;-75
2022/03/23 06:42:50;;;;;;;54.38;25.98;;;;;;;5.63;79.69;102655.34;5086986;28;20052;-74
2022/03/23 06:45:16;;;;;;;50.58;27.45;;;;;;;5.73;79.73;102661.34;5087473;28;20044;-76
2022/03/23 06:47:43;;;;;;;52.28;27.00;;;;;;;5.83;79.33;102668.50;5084835;28;20525;-76
2022/03/23 06:50:09;;;;;;;50.28;26.00;;;;;;;5.90;78.67;102672.41;5087264;28;20135;-78
2022/03/23 06:52:36;;;;;;;50.03;26.05;;;;;;;5.99;77.92;102677.94;5086992;28;20054;-78
2022/03/23 06:55:03;;;;;;;50.97;26.80;;;;;;;6.06;77.21;102670.84;5085767;28;20052;-77
2022/03/23 06:57:30;;;;;;;48.92;24.35;;;;;;;6.12;77.51;102677.81;5083152;28;20049;-78
2022/03/23 06:59:56;;;;;;;45.88;23.75;;;;;;;6.14;77.79;102670.06;5089486;28;20123;-76
2022/03/23 07:02:23;;;;;;;48.83;25.63;;;;;;;6.20;78.17;102671.53;5089901;28;20071;-78
2022/03/23 07:04:49;;;;;;;45.75;24.15;;;;;;;6.29;77.16;102674.28;5090630;28;20058;-77
2022/03/23 07:07:16;;;;;;;47.97;25.48;;;;;;;6.41;76.41;102672.53;5092077;28;20055;-77
2022/03/23 07:09:43;;;;;;;51.97;25.20;;;;;;;6.53;75.26;102674.63;5091507;28;20545;-78
2022/03/23 07:12:11;;;;;;;48.97;25.40;;;;;;;6.68;74.36;102677.72;5089613;28;20048;-78
2022/03/23 07:14:40;;;;;;;53.92;25.33;;;;;;;6.77;74.58;102672.19;5090224;28;20047;-77
2022/03/23 07:17:07;;;;;;;55.53;25.30;;;;;;;6.89;74.53;102684.16;5090949;28;20204;-78
2022/03/23 07:19:33;;;;;;;52.45;24.73;;;;;;;6.99;74.26;102681.09;5087866;28;20040;-78
2022/03/23 07:22:00;;;;;;;52.35;25.73;;;;;;;7.10;73.67;102678.81;5091000;28;20162;-78
2022/03/23 07:24:27;;;;;;;51.03;23.63;;;;;;;7.21;73.39;102680.06;5095219;28;20713;-76
2022/03/23 07:26:54;;;;;;;45.83;23.67;;;;;;;7.31;72.81;102676.97;5091140;28;20054;-77
2022/03/23 07:29:41;;;;;;;44.85;23.63;;;;;;;7.48;71.74;102688.75;5088838;28;20040;-73
2022/03/23 07:32:08;;;;;;;45.83;22.65;;;;;;;7.62;71.28;102685.78;5089550;28;20123;-73
2022/03/23 07:34:35;;;;;;;46.00;23.30;;;;;;;7.75;70.82;102684.75;5090234;28;20050;-73
2022/03/23 07:37:01;;;;;;;44.95;23.25;;;;;;;7.88;69.72;102687.31;5089301;28;20111;-74
2022/03/23 07:39:28;;;;;;;48.80;23.33;;;;;;;8.01;68.62;102688.22;5088643;28;20066;-74
2022/03/23 07:41:55;;;;;;;43.58;23.27;;;;;;;8.13;67.61;102685.53;5089623;28;20051;-74
2022/03/23 07:44:22;;;;;;;42.20;22.95;;;;;;;8.25;66.63;102682.09;5088801;28;20171;-73
2022/03/23 07:46:48;;;;;;;48.35;24.73;;;;;;;8.42;65.99;102693.00;5089795;28;20052;-76
2022/03/23 07:49:15;;;;;;;45.55;22.90;;;;;;;8.56;65.44;102691.59;5081354;28;20044;-75
2022/03/23 07:51:42;;;;;;;47.47;22.98;;;;;;;8.67;64.55;102687.28;5083464;28;20595;-74
2022/03/23 07:54:09;;;;;;;49.28;22.85;;;;;;;8.82;64.13;102691.41;5088401;28;20048;-74
2022/03/23 07:56:35;;;;;;;42.10;23.85;;;;;;;8.96;63.57;102691.91;5082374;28;20147;-75
2022/03/23 07:59:03;;;;;;;48.92;26.08;;;;;;;9.12;63.46;102699.25;5083507;28;20808;-74
2022/03/23 08:01:30;;;;;;;43.35;23.75;;;;;;;9.27;62.77;102703.31;5087400;28;20075;-75
2022/03/23 08:03:57;;;;;;;44.92;23.75;;;;;;;9.40;61.79;102694.72;5089149;28;20052;-76
2022/03/23 08:06:25;;;;;;;41.03;21.70;;;;;;;9.55;61.39;102698.78;5086489;28;20159;-74
2022/03/23 08:08:52;;;;;;;45.17;24.15;;;;;;;9.70;61.11;102700.88;5089047;28;20080;-74
2022/03/23 08:11:19;;;;;;;45.75;24.67;;;;;;;9.85;60.02;102712.06;5086341;28;20646;-74
2022/03/23 08:13:45;;;;;;;45.40;25.38;;;;;;;10.02;59.59;102705.50;5089123;28;20278;-75
2022/03/23 08:16:12;;;;;;;45.42;23.58;;;;;;;10.12;59.15;102702.28;5097060;28;20048;-76
2022/03/23 08:18:39;;;;;;;40.70;23.02;;;;;;;10.29;58.15;102708.41;5087667;28;20051;-74
2022/03/23 08:21:05;;;;;;;47.13;24.40;;;;;;;10.46;57.49;102708.16;5087993;28;20743;-75
2022/03/23 08:23:32;;;;;;;48.05;23.30;;;;;;;10.61;57.18;102706.63;5089409;28;20052;-75
2022/03/23 08:25:59;;;;;;;44.72;23.95;;;;;;;10.80;57.28;102712.31;5091092;28;20134;-73
2022/03/23 08:28:25;;;;;;;41.95;21.65;;;;;;;10.94;56.87;102701.69;5090266;28;20130;-77
2022/03/23 08:30:52;;;;;;;40.55;22.77;;;;;;;11.10;55.39;102699.75;5083012;28;20043;-74
2022/03/23 08:33:19;;;;;;;47.88;23.15;;;;;;;11.28;55.09;102691.94;5082328;28;20048;-73
2022/03/23 08:35:46;;;;;;;41.13;22.25;;;;;;;11.42;54.60;102700.63;5079805;28;20060;-71
2022/03/23 08:38:13;;;;;;;42.45;22.48;;;;;;;11.61;54.32;102692.44;5084134;28;20583;-72
2022/03/23 08:40:40;;;;;;;40.80;22.20;;;;;;;11.74;53.07;102694.78;5086722;28;20048;-73
2022/03/23 08:43:06;;;;;;;48.80;23.73;;;;;;;11.93;53.11;102696.84;5081291;28;20066;-75
2022/03/23 08:45:35;;;;;;;41.42;22.70;;;;;;;12.09;52.00;102697.63;5080927;28;20062;-76
2022/03/23 08:48:03;;;;;;;41.63;21.38;;;;;;;12.25;50.76;102707.53;5083140;28;20054;-72
2022/03/23 08:50:30;;;;;;;42.67;21.90;;;;;;;12.43;50.33;102699.63;5080721;28;20056;-74
2022/03/23 08:53:09;;;;;;;41.28;22.30;;;;;;;12.59;50.63;102701.19;5057278;28;20418;-75
2022/03/23 08:55:36;;;;;;;40.33;22.45;;;;;;;12.80;50.26;102701.63;5037958;28;20100;-73
2022/03/23 08:58:02;;;;;;;39.20;21.00;;;;;;;12.98;50.36;102702.84;5043250;28;20103;-72
2022/03/23 09:00:29;;;;;;;43.00;22.98;;;;;;;13.16;49.54;102699.63;5041140;28;20053;-73
2022/03/23 09:02:56;;;;;;;41.13;20.88;;;;;;;13.29;48.09;102701.09;5042478;28;20069;-76
2022/03/23 09:05:23;;;;;;;40.75;21.17;;;;;;;13.44;47.58;102700.97;5037864;28;20155;-72
2022/03/23 09:07:49;;;;;;;41.40;22.63;;;;;;;13.62;47.85;102702.09;5034359;28;20124;-74
2022/03/23 09:10:18;;;;;;;37.40;20.90;;;;;;;13.79;47.42;102700.78;5041678;28;20049;-74
2022/03/23 09:12:45;;;;;;;38.30;21.27;;;;;;;13.93;46.80;102701.00;5036577;28;20124;-72
2022/03/23 09:15:14;;;;;;;44.20;22.27;;;;;;;14.13;46.30;102697.78;5042131;28;20080;-73
2022/03/23 09:17:42;;;;;;;39.05;20.73;;;;;;;14.28;44.49;102694.06;5041244;28;20116;-72
2022/03/23 09:20:11;;;;;;;37.40;20.92;;;;;;;14.42;43.00;102697.06;5045388;28;20053;-72
2022/03/23 09:22:42;;;;;;;35.83;20.67;;;;;;;14.54;43.91;102699.63;5037012;28;20050;-72
2022/03/23 09:25:10;;;;;;;38.38;20.35;;;;;;;14.74;43.01;102689.94;5043288;28;20081;-73
2022/03/23 09:27:43;;;;;;;36.47;19.38;;;;;;;14.95;39.91;102695.78;5036403;28;20046;-72
2022/03/23 09:30:13;;;;;;;35.33;19.45;;;;;;;15.10;40.45;102692.00;5037341;28;20057;-72
2022/03/23 09:32:40;;;;;;;38.60;19.50;;;;;;;15.16;39.41;102690.44;5034795;28;20053;-73
2022/03/23 09:35:08;;;;;;;38.30;21.50;;;;;;;15.36;41.05;102686.31;5040663;28;20056;-73
2022/03/23 09:37:47;;;;;;;37.70;21.33;;;;;;;15.53;41.00;102691.28;5038363;28;20079;-74
2022/03/23 09:40:17;;;;;;;42.22;20.67;;;;;;;15.70;40.88;102686.25;5035152;28;20147;-73
2022/03/23 09:42:44;;;;;;;40.63;20.90;;;;;;;15.88;40.48;102687.19;5055052;28;20131;-71
2022/03/23 09:45:15;;;;;;;42.95;24.27;;;;;;;16.01;40.47;102686.53;5058553;28;20052;-71
2022/03/23 09:47:43;;;;;;;43.50;22.42;;;;;;;16.22;40.82;102683.06;5052409;28;20056;-73
2022/03/23 09:50:11;;;;;;;38.33;21.42;;;;;;;16.49;40.29;102681.69;5054707;28;20052;-73
2022/03/23 09:52:38;;;;;;;41.15;22.52;;;;;;;16.69;38.77;102683.00;5059416;28;20055;-72
2022/03/23 09:55:05;;;;;;;39.63;21.45;;;;;;;16.88;37.34;102685.47;5057161;28;20148;-71
2022/03/23 09:57:32;;;;;;;38.55;20.15;;;;;;;17.08;38.44;102681.16;5045762;28;20131;-70
2022/03/23 09:59:58;;;;;;;38.75;21.48;;;;;;;17.28;37.05;102688.81;5043195;28;20132;-74
2022/03/23 10:02:57;;;;;;;36.28;20.67;;;;;;;17.45;35.54;102684.50;5046656;28;20175;-73
2022/03/23 10:05:51;;;;;;;35.58;21.52;;;;;;;17.55;34.47;102678.09;5038691;28;20527;-77
2022/03/23 10:08:42;;;;;;;36.00;20.38;;;;;;;17.66;33.95;102684.50;5047692;28;20088;-75
2022/03/23 10:11:46;;;;;;;35.65;18.95;;;;;;;17.71;31.76;102681.31;5041940;28;20556;-75
2022/03/23 10:14:32;;;;;;;36.60;21.67;;;;;;;18.02;34.50;102676.91;5044789;28;20465;-74
2022/03/23 10:17:36;;;;;;;41.40;22.77;;;;;;;18.10;32.94;102684.91;5041060;28;20164;-73
2022/03/23 10:20:03;;;;;;;37.63;21.08;;;;;;;18.20;34.21;102667.28;5040952;28;20060;-74
2022/03/23 10:22:30;;;;;;;39.70;22.70;;;;;;;18.27;33.76;102660.84;5037325;28;20132;-75
2022/03/23 10:25:07;;;;;;;45.97;23.50;;;;;;;18.37;33.49;102676.88;5043835;28;20055;-75
2022/03/23 10:27:34;;;;;;;37.70;23.33;;;;;;;18.34;33.59;102667.25;5038576;28;20080;-76
2022/03/23 10:30:00;;;;;;;39.00;23.05;;;;;;;18.46;33.91;102669.63;5040011;28;20606;-76
2022/03/23 10:32:34;;;;;;;37.35;20.25;;;;;;;18.48;32.88;102661.63;5039495;28;20045;-74
2022/03/23 10:35:01;;;;;;;40.03;21.20;;;;;;;18.68;33.16;102670.38;5039918;28;20144;-75
2022/03/23 10:37:30;;;;;;;43.53;24.83;;;;;;;18.85;33.63;102658.28;5045118;28;20204;-77
2022/03/23 10:39:59;;;;;;;38.00;23.25;;;;;;;19.07;34.21;102659.78;5042829;28;20124;-74
2022/03/23 10:42:28;;;;;;;39.53;24.42;;;;;;;19.28;33.67;102659.69;5034475;28;20056;-75
2022/03/23 10:45:21;;;;;;;42.80;24.85;;;;;;;19.47;32.33;102659.97;5037639;28;20053;-78
2022/03/23 10:47:49;;;;;;;45.38;25.73;;;;;;;19.57;33.22;102650.66;5037865;28;20557;-74
2022/03/23 10:50:19;;;;;;;43.10;23.70;;;;;;;19.66;33.26;102655.81;5040306;28;20051;-75
2022/03/23 10:52:54;;;;;;;44.05;24.85;;;;;;;19.74;33.18;102644.09;5042370;28;20059;-75
2022/03/23 10:55:23;;;;;;;35.78;20.40;;;;;;;19.77;31.55;102648.91;5030480;28;20053;-76
2022/03/23 10:57:59;;;;;;;40.13;21.92;;;;;;;19.76;30.75;102644.50;5027395;28;20087;-75
2022/03/23 11:00:37;;;;;;;42.55;23.90;;;;;;;19.92;31.59;102632.72;5028701;28;20103;-76
2022/03/23 11:03:05;;;;;;;39.15;24.25;;;;;;;20.11;31.80;102640.56;5026413;28;20846;-74
2022/03/23 11:05:37;;;;;;;42.75;25.42;;;;;;;20.39;31.77;102640.28;5026605;28;20140;-75
2022/03/23 11:08:14;;;;;;;41.67;21.73;;;;;;;20.58;31.04;102630.44;5031764;28;20061;-77
2022/03/23 11:18:57;;;;;;;41.83;22.58;;;;;;;21.42;29.46;102632.06;5028642;28;20116;-75
2022/03/23 11:21:24;;;;;;;36.60;22.02;;;;;;;21.50;28.47;102622.31;5028043;28;20165;-75
2022/03/23 11:23:51;;;;;;;34.63;21.88;;;;;;;21.60;28.99;102624.16;5026325;28;20646;-75
2022/03/23 11:26:19;;;;;;;34.00;20.20;;;;;;;21.78;28.68;102625.47;5020013;28;20042;-73
2022/03/23 11:28:46;;;;;;;37.20;19.77;;;;;;;21.93;28.80;102620.38;5025015;28;20152;-74
2022/03/23 11:31:16;;;;;;;34.42;20.23;;;;;;;22.11;27.20;102620.84;5015786;28;20060;-74
2022/03/23 11:33:49;;;;;;;38.78;21.27;;;;;;;22.12;26.78;102620.44;5022028;28;20045;-72
2022/03/23 11:36:17;;;;;;;38.95;21.45;;;;;;;22.03;26.89;102616.56;5021699;28;20139;-76
2022/03/23 11:38:47;;;;;;;34.20;21.10;;;;;;;22.10;26.40;102613.59;5024953;28;20168;-73
2022/03/23 11:41:16;;;;;;;35.03;21.73;;;;;;;22.51;27.13;102616.88;5024279;28;20053;-76
2022/03/23 11:43:42;;;;;;;36.28;21.58;;;;;;;22.87;27.29;102612.06;5026949;28;20053;-72